Time;durP1;ratioP1;P1;durP2;ratioP2;P2;SDS_P1;SDS_P2;PMS_P1;PMS_P2;Temp;Humidity;BMP_temperature;BMP_pressure;BME280_temperature;BME280_humidity;BME280_pressure;Samples;Min_cycle;Max_cycle;Signal;HPM_P1;HPM_P2
2022/05/09 00:00:07;;;;;;;5.70;2.20;;;;;;;11.02;100.00;100240.91;6188260;23;20100;-65
2022/05/09 00:02:56;;;;;;;5.53;2.28;;;;;;;11.04;100.00;100243.56;6188547;23;20142;-65
2022/05/09 00:05:41;;;;;;;4.18;2.10;;;;;;;11.08;100.00;100248.78;6198975;23;20113;-65
2022/05/09 00:08:27;;;;;;;3.60;2.25;;;;;;;11.10;100.00;100238.13;6186394;23;20032;-66
2022/05/09 00:11:15;;;;;;;4.05;2.13;;;;;;;11.03;100.00;100245.31;6169239;23;20026;-65
2022/05/09 00:14:01;;;;;;;2.80;2.00;;;;;;;11.02;100.00;100251.53;6221153;23;20227;-65
2022/05/09 00:16:47;;;;;;;5.43;2.22;;;;;;;11.16;100.00;100249.53;6211177;23;20520;-66
2022/05/09 00:19:32;;;;;;;4.38;2.88;;;;;;;11.10;100.00;100246.09;6211138;23;20027;-66
2022/05/09 00:22:17;;;;;;;2.60;2.30;;;;;;;11.01;100.00;100231.22;6219003;23;20082;-73
2022/05/09 00:25:11;;;;;;;2.80;2.25;;;;;;;10.99;100.00;100235.66;6188598;23;20028;-66
2022/05/09 00:27:57;;;;;;;2.90;2.37;;;;;;;10.96;100.00;100237.47;6221346;23;20030;-65
2022/05/09 00:30:43;;;;;;;4.07;2.33;;;;;;;10.75;100.00;100229.78;6177775;23;20489;-65
2022/05/09 00:33:28;;;;;;;2.58;2.00;;;;;;;10.84;100.00;100232.34;6177664;23;20031;-65
2022/05/09 00:36:16;;;;;;;3.08;2.35;;;;;;;10.92;100.00;100227.81;6165267;23;20038;-66
2022/05/09 00:39:02;;;;;;;5.30;2.67;;;;;;;10.73;100.00;100229.84;6210836;23;20075;-67
2022/05/09 00:41:48;;;;;;;3.95;2.47;;;;;;;10.76;100.00;100236.88;6198487;23;20352;-65
2022/05/09 00:44:33;;;;;;;4.15;2.40;;;;;;;10.73;100.00;100239.56;6198466;23;20031;-65
2022/05/09 00:47:20;;;;;;;4.80;2.25;;;;;;;10.83;100.00;100251.78;6220932;23;20090;-65
2022/05/09 00:50:08;;;;;;;2.78;2.28;;;;;;;10.92;100.00;100252.53;6208762;23;20027;-70
2022/05/09 00:53:07;;;;;;;6.45;2.33;;;;;;;11.02;100.00;100255.94;6188582;23;20027;-65
2022/05/09 00:55:58;;;;;;;4.22;2.53;;;;;;;10.92;100.00;100252.53;6177566;23;20031;-66
2022/05/09 00:58:47;;;;;;;4.15;1.90;;;;;;;10.95;100.00;100255.16;6218412;23;20092;-66
2022/05/09 01:01:31;;;;;;;3.67;2.03;;;;;;;10.84;100.00;100249.13;6220837;23;20039;-66
2022/05/09 01:04:21;;;;;;;;;;;;;;;10.91;100.00;100255.25;6189108;23;20036;-65
2022/05/09 01:07:07;;;;;;;3.38;1.65;;;;;;;10.96;100.00;100258.69;6166676;23;19921;-66
2022/05/09 01:09:58;;;;;;;4.10;1.85;;;;;;;10.93;100.00;100267.59;6220700;23;20031;-65
2022/05/09 01:12:53;;;;;;;4.60;2.13;;;;;;;10.98;100.00;100259.53;6186617;23;20474;-65
2022/05/09 01:16:12;;;;;;;6.35;1.55;;;;;;;11.11;100.00;100261.16;6166192;23;20070;-74
2022/05/09 01:19:08;;;;;;;5.35;1.85;;;;;;;11.07;100.00;100262.09;6218146;23;20406;-67
2022/05/09 01:21:57;;;;;;;7.60;2.10;;;;;;;11.00;100.00;100260.41;6210571;23;20032;-66
2022/05/09 01:24:43;;;;;;;4.05;1.80;;;;;;;10.98;100.00;100262.19;6198255;23;20521;-66
2022/05/09 01:27:28;;;;;;;5.43;1.63;;;;;;;10.95;100.00;100259.59;6219288;23;20167;-70
2022/05/09 01:30:19;;;;;;;6.60;2.03;;;;;;;11.04;100.00;100254.16;6198043;23;20027;-65
2022/05/09 01:33:12;;;;;;;6.80;2.05;;;;;;;11.06;100.00;100253.25;6196550;23;20380;-66
2022/05/09 01:36:04;;;;;;;4.47;2.08;;;;;;;11.01;100.00;100255.09;6166616;23;20027;-72
2022/05/09 01:38:56;;;;;;;4.05;2.22;;;;;;;11.03;100.00;100253.28;6166710;23;20028;-65
2022/05/09 01:41:47;;;;;;;7.07;2.58;;;;;;;11.07;100.00;100264.75;6187639;23;20334;-65
2022/05/09 01:44:33;;;;;;;3.90;2.50;;;;;;;11.03;100.00;100261.22;6166076;23;20071;-70
2022/05/09 01:50:23;;;;;;;4.90;2.20;;;;;;;11.07;100.00;100268.25;6166869;23;20100;-66
2022/05/09 01:53:08;;;;;;;7.53;2.20;;;;;;;11.10;100.00;100264.69;6218888;23;20024;-67
2022/05/09 01:55:53;;;;;;;3.67;2.15;;;;;;;11.06;100.00;100273.56;6197889;23;20031;-65
2022/05/09 01:58:38;;;;;;;3.03;2.03;;;;;;;11.01;100.00;100263.06;6143492;23;20073;-65
2022/05/09 02:01:25;;;;;;;;;;;;;;;11.08;100.00;100263.84;6167270;23;20027;-65
2022/05/09 02:04:13;;;;;;;2.83;1.95;;;;;;;11.14;100.00;100263.72;6197716;23;20261;-65
2022/05/09 02:07:02;;;;;;;4.00;1.85;;;;;;;11.14;100.00;100261.97;6186166;23;20159;-67
2022/05/09 02:09:48;;;;;;;3.00;1.92;;;;;;;11.02;100.00;100256.84;6187465;23;20032;-66
2022/05/09 02:12:34;;;;;;;2.72;2.03;;;;;;;11.10;100.00;100265.56;6143600;23;20028;-66
2022/05/09 02:15:19;;;;;;;3.17;2.10;;;;;;;11.05;100.00;100254.16;6166690;23;20355;-65
2022/05/09 02:18:03;;;;;;;;;;;;;;;11.05;100.00;100267.41;6220614;23;20182;-66
2022/05/09 02:20:48;;;;;;;5.40;2.60;;;;;;;10.90;100.00;100267.63;6197561;23;20377;-66
2022/05/09 02:23:33;;;;;;;7.97;3.30;;;;;;;10.93;100.00;100264.03;6222854;23;20500;-66
2022/05/09 02:26:18;;;;;;;;;;;;;;;10.97;100.00;100261.34;6148606;23;20051;-67
2022/05/09 02:29:03;;;;;;;5.22;2.65;;;;;;;11.01;100.00;100251.53;6148318;23;20376;-66
2022/05/09 02:31:48;;;;;;;;;;;;;;;11.03;100.00;100249.75;6219310;23;20104;-67
2022/05/09 02:34:33;;;;;;;6.53;3.00;;;;;;;10.97;100.00;100253.38;6189680;23;20305;-66
2022/05/09 02:37:18;;;;;;;5.55;2.67;;;;;;;10.96;100.00;100259.56;6180214;23;20250;-65
2022/05/09 02:40:03;;;;;;;6.32;2.85;;;;;;;10.76;100.00;100252.78;6223197;23;20102;-65
2022/05/09 02:42:48;;;;;;;4.05;2.40;;;;;;;10.86;100.00;100250.00;6189349;23;20063;-65
2022/05/09 02:45:33;;;;;;;4.95;2.40;;;;;;;10.88;100.00;100242.00;6166334;23;20346;-72
2022/05/09 02:48:18;;;;;;;5.20;2.35;;;;;;;10.89;100.00;100259.69;6199356;23;20053;-65
2022/05/09 02:51:05;;;;;;;6.18;2.42;;;;;;;10.94;100.00;100252.53;6197204;23;20056;-66
2022/05/09 02:53:50;;;;;;;5.10;2.40;;;;;;;10.86;100.00;100257.94;6179301;23;20031;-66
2022/05/09 02:56:35;;;;;;;9.20;2.42;;;;;;;10.82;100.00;100261.53;6170684;23;20234;-65
2022/05/09 02:59:20;;;;;;;6.90;2.55;;;;;;;10.58;100.00;100261.84;6179425;23;20040;-65
2022/05/09 03:02:05;;;;;;;7.50;2.60;;;;;;;10.81;100.00;100257.13;6221777;23;20477;-65
2022/05/09 03:04:50;;;;;;;;;;;;;;;10.74;100.00;100266.06;6219948;23;20027;-66
2022/05/09 03:07:35;;;;;;;5.07;2.60;;;;;;;10.70;100.00;100266.09;6168911;23;19918;-68
2022/05/09 03:10:31;;;;;;;4.60;2.85;;;;;;;10.76;100.00;100268.69;6170702;23;20099;-65
2022/05/09 03:13:16;;;;;;;3.75;2.45;;;;;;;10.84;100.00;100259.72;6221714;23;20024;-67
2022/05/09 03:16:02;;;;;;;4.95;2.67;;;;;;;10.75;100.00;100262.50;6189289;23;20086;-65
2022/05/09 03:18:47;;;;;;;6.70;2.25;;;;;;;10.87;100.00;100256.16;6219288;23;20027;-66
2022/05/09 03:21:32;;;;;;;4.38;1.80;;;;;;;10.76;100.00;100244.84;6168049;23;20027;-65
2022/05/09 03:24:17;;;;;;;6.15;2.00;;;;;;;10.79;100.00;100244.75;6146383;23;20259;-65
2022/05/09 03:27:04;;;;;;;3.85;2.00;;;;;;;10.83;100.00;100247.38;6167939;23;20414;-66
2022/05/09 03:29:49;;;;;;;5.10;1.70;;;;;;;10.87;100.00;100248.19;6178168;23;20081;-66
2022/05/09 03:32:35;;;;;;;2.90;1.40;;;;;;;10.90;100.00;100257.00;6176381;23;20481;-67
2022/05/09 03:35:21;;;;;;;4.88;2.30;;;;;;;10.94;100.00;100252.53;6198990;23;20032;-65
2022/05/09 03:38:06;;;;;;;2.28;1.70;;;;;;;10.89;100.00;100236.69;6219099;23;20104;-66
2022/05/09 03:40:51;;;;;;;2.33;1.60;;;;;;;11.16;100.00;100256.66;6221555;23;20027;-66
2022/05/09 03:43:36;;;;;;;;;;;;;;;11.18;100.00;100261.03;6221539;23;20024;-65
2022/05/09 03:46:21;;;;;;;4.43;1.83;;;;;;;11.09;100.00;100277.09;6167846;23;19927;-66
2022/05/09 03:49:06;;;;;;;3.10;1.27;;;;;;;11.07;100.00;100270.91;6198824;23;20074;-65
2022/05/09 03:51:51;;;;;;;;;;;;;;;11.11;100.00;100264.66;6219742;23;20028;-67
2022/05/09 03:54:38;;;;;;;2.45;1.58;;;;;;;10.87;100.00;100235.81;6168511;23;20309;-65
2022/05/09 03:57:24;;;;;;;3.92;1.50;;;;;;;10.97;100.00;100255.16;6166216;23;20031;-66
2022/05/09 04:00:09;;;;;;;3.72;2.00;;;;;;;11.02;100.00;100287.78;6211213;23;20481;-66
2022/05/09 04:03:01;;;;;;;4.38;1.92;;;;;;;11.02;100.00;100278.06;6169276;23;20027;-66
2022/05/09 04:05:46;;;;;;;1.90;1.50;;;;;;;10.86;100.00;100270.31;6196105;23;20118;-70
2022/05/09 04:08:31;;;;;;;3.83;1.88;;;;;;;10.60;100.00;100283.06;6167295;23;20074;-66
2022/05/09 04:11:16;;;;;;;4.82;1.60;;;;;;;10.57;100.00;100283.97;6186096;23;20152;-66
2022/05/09 04:14:01;;;;;;;6.78;1.90;;;;;;;10.65;100.00;100286.50;6177389;23;20027;-65
2022/05/09 04:16:52;;;;;;;5.15;1.83;;;;;;;10.72;100.00;100282.91;6198180;23;20154;-66
2022/05/09 04:19:39;;;;;;;6.10;1.98;;;;;;;10.74;100.00;100278.44;6196786;23;20031;-74
2022/05/09 04:22:24;;;;;;;3.10;1.60;;;;;;;10.71;100.00;100276.69;6221070;23;20027;-65
2022/05/09 04:25:12;;;;;;;3.17;1.52;;;;;;;10.92;100.00;100280.88;6186697;23;20031;-65
2022/05/09 04:27:57;;;;;;;3.55;1.60;;;;;;;10.89;100.00;100295.06;6210886;23;20032;-65
2022/05/09 04:30:43;;;;;;;7.15;1.48;;;;;;;10.83;100.00;100286.28;6188333;23;20026;-65
2022/05/09 04:33:28;;;;;;;2.65;1.10;;;;;;;10.85;100.00;100300.41;6197608;23;20086;-73
2022/05/09 04:36:14;;;;;;;5.40;1.30;;;;;;;10.87;100.00;100306.56;6198334;23;20027;-65
2022/05/09 04:38:59;;;;;;;1.85;1.10;;;;;;;10.95;100.00;100297.59;6185979;23;20023;-66
2022/05/09 04:41:44;;;;;;;;;;;;;;;10.79;100.00;100298.72;6221457;23;20031;-65
2022/05/09 04:44:28;;;;;;;1.75;1.27;;;;;;;10.75;100.00;100310.25;6166145;23;19962;-65
2022/05/09 04:47:14;;;;;;;3.05;1.70;;;;;;;10.85;100.00;100316.31;6146631;23;20106;-66
2022/05/09 04:49:59;;;;;;;3.88;1.75;;;;;;;10.73;100.00;100312.06;6220769;23;20051;-65
2022/05/09 04:52:44;;;;;;;3.47;1.30;;;;;;;10.63;100.00;100310.41;6187446;23;20484;-66
2022/05/09 04:55:29;;;;;;;3.92;1.30;;;;;;;10.42;100.00;100313.28;6210054;23;20027;-66
2022/05/09 04:58:17;;;;;;;2.75;1.55;;;;;;;10.31;100.00;100295.72;6195311;23;20028;-66
2022/05/09 05:01:02;;;;;;;4.55;1.33;;;;;;;10.23;100.00;100305.53;6220791;23;20082;-66
2022/05/09 05:03:47;;;;;;;4.15;1.30;;;;;;;10.20;100.00;100287.91;6220899;23;20242;-66
2022/05/09 05:06:32;;;;;;;2.55;1.40;;;;;;;10.23;100.00;100306.44;6220528;23;20202;-66
2022/05/09 05:09:17;;;;;;;1.95;1.48;;;;;;;10.22;100.00;100309.09;6210397;23;20416;-65
2022/05/09 05:12:03;;;;;;;3.40;1.27;;;;;;;10.17;100.00;100305.63;6208427;23;20098;-73
2022/05/09 05:14:48;;;;;;;4.82;1.52;;;;;;;10.23;100.00;100303.78;6167012;23;20023;-66
2022/05/09 05:17:33;;;;;;;4.88;1.30;;;;;;;10.31;100.00;100309.88;6185653;23;20031;-66
2022/05/09 05:20:19;;;;;;;3.33;1.63;;;;;;;10.38;100.00;100310.69;6198053;23;20071;-66
2022/05/09 05:23:04;;;;;;;2.00;1.52;;;;;;;10.57;100.00;100310.50;6197977;23;20027;-67
2022/05/09 05:25:49;;;;;;;5.00;1.50;;;;;;;10.64;100.00;100312.16;6146093;23;20358;-65
2022/05/09 05:28:33;;;;;;;;;;;;;;;10.66;100.00;100312.13;6198420;23;20031;-65
2022/05/09 05:31:19;;;;;;;3.03;1.40;;;;;;;10.89;100.00;100310.09;6143888;23;19918;-66
2022/05/09 05:34:03;;;;;;;;;;;;;;;10.95;100.00;100318.84;6177538;23;20031;-66
2022/05/09 05:36:50;;;;;;;2.90;1.20;;;;;;;11.09;100.00;100308.03;6218146;23;20298;-66
2022/05/09 05:39:37;;;;;;;2.83;1.30;;;;;;;11.23;100.00;100314.91;6197661;23;20027;-65
2022/05/09 05:42:23;;;;;;;2.05;1.40;;;;;;;11.40;100.00;100312.88;6220506;23;20462;-66
2022/05/09 05:45:10;;;;;;;2.67;1.15;;;;;;;10.98;100.00;100294.03;6196344;23;20059;-69
2022/05/09 05:47:55;;;;;;;3.38;1.20;;;;;;;10.90;100.00;100319.78;6220151;23;20070;-65
2022/05/09 05:50:40;;;;;;;;;;;;;;;10.79;100.00;100309.31;6218427;23;20474;-66
2022/05/09 05:53:25;;;;;;;2.00;1.17;;;;;;;10.62;100.00;100307.75;6166747;23;19937;-66
2022/05/09 05:56:09;;;;;;;;;;;;;;;10.67;100.00;100304.16;6177214;23;20028;-65
2022/05/09 05:58:54;;;;;;;2.97;1.30;;;;;;;10.59;100.00;100300.72;6166450;23;20258;-66
2022/05/09 06:01:39;;;;;;;;;;;;;;;10.67;100.00;100305.94;6167426;23;20031;-66
2022/05/09 06:04:24;;;;;;;1.80;1.10;;;;;;;10.68;100.00;100294.44;6185737;23;19962;-70
2022/05/09 06:07:12;;;;;;;5.47;1.42;;;;;;;11.06;100.00;100319.59;6187431;23;20032;-66
2022/05/09 06:09:57;;;;;;;2.85;1.30;;;;;;;11.59;100.00;100325.00;6186063;23;20075;-65
2022/05/09 06:12:43;;;;;;;2.63;1.20;;;;;;;12.06;100.00;100318.94;6210023;23;20516;-65
2022/05/09 06:15:37;;;;;;;3.10;1.00;;;;;;;12.34;100.00;100301.63;6166615;23;20031;-65
2022/05/09 06:18:24;;;;;;;1.98;1.15;;;;;;;12.36;100.00;100319.31;6217691;23;20366;-66
2022/05/09 06:21:10;;;;;;;2.38;0.88;;;;;;;12.27;100.00;100305.28;6176644;23;20098;-71
2022/05/09 06:23:55;;;;;;;4.78;1.05;;;;;;;12.22;100.00;100318.66;6196528;23;20071;-66
2022/05/09 06:26:42;;;;;;;1.75;0.82;;;;;;;12.16;100.00;100325.88;6197210;23;20043;-66
2022/05/09 06:29:27;;;;;;;1.70;0.90;;;;;;;12.28;100.00;100309.69;6145836;23;20086;-65
2022/05/09 06:32:12;;;;;;;;;;;;;;;12.10;100.00;100315.31;6196139;23;20027;-69
2022/05/09 06:34:57;;;;;;;6.43;1.10;;;;;;;12.02;100.00;100317.25;6145832;23;19918;-65
2022/05/09 06:37:54;;;;;;;1.70;0.73;;;;;;;12.33;100.00;100323.78;6195719;23;20027;-66
2022/05/09 06:40:44;;;;;;;3.03;1.02;;;;;;;12.46;100.00;100309.38;6166601;23;20477;-66
2022/05/09 06:43:30;;;;;;;5.28;1.05;;;;;;;12.52;100.00;100314.56;6166614;23;20024;-66
2022/05/09 06:46:18;;;;;;;2.85;0.98;;;;;;;12.43;100.00;100317.41;6217779;23;20078;-66
2022/05/09 06:49:09;;;;;;;3.63;1.10;;;;;;;12.61;100.00;100309.94;6197517;23;20043;-66
2022/05/09 06:51:54;;;;;;;2.13;0.80;;;;;;;12.50;100.00;100292.44;6197599;23;20022;-66
2022/05/09 06:54:38;;;;;;;;;;;;;;;12.60;100.00;100328.59;6165429;23;20096;-71
2022/05/09 06:57:23;;;;;;;3.38;1.05;;;;;;;12.92;100.00;100318.19;6219385;23;19923;-65
2022/05/09 07:00:13;;;;;;;17.02;1.45;;;;;;;13.47;100.00;100330.31;6217195;23;20027;-66
2022/05/09 07:02:57;;;;;;;3.95;1.38;;;;;;;13.33;100.00;100320.84;6186974;23;20414;-65
2022/05/09 07:05:45;;;;;;;2.05;0.90;;;;;;;12.95;100.00;100310.13;6219698;23;20024;-64
2022/05/09 07:08:32;;;;;;;2.20;1.00;;;;;;;12.92;100.00;100328.81;6220140;23;20324;-65
2022/05/09 07:11:16;;;;;;;4.53;1.05;;;;;;;13.05;100.00;100325.03;6219959;23;20032;-66
2022/05/09 07:14:00;;;;;;;5.85;1.52;;;;;;;13.06;100.00;100332.13;6207634;23;20525;-69
2022/05/09 07:16:45;;;;;;;6.15;0.82;;;;;;;13.07;100.00;100328.53;6187182;23;20032;-66
2022/05/09 07:19:31;;;;;;;2.47;0.63;;;;;;;13.06;100.00;100340.09;6220395;23;20123;-66
2022/05/09 07:22:15;;;;;;;3.38;0.73;;;;;;;13.21;100.00;100321.13;6188643;23;20031;-63
2022/05/09 07:25:02;;;;;;;1.45;0.68;;;;;;;13.34;100.00;100314.63;6189012;23;20074;-64
2022/05/09 07:27:48;;;;;;;2.45;0.70;;;;;;;13.70;100.00;100337.78;6209623;23;20051;-68
2022/05/09 07:30:33;;;;;;;1.35;0.80;;;;;;;13.87;100.00;100319.56;6221383;23;20108;-63
2022/05/09 07:33:19;;;;;;;2.22;0.80;;;;;;;14.73;100.00;100342.22;6219008;23;20055;-63
2022/05/09 07:36:05;;;;;;;4.82;0.82;;;;;;;14.49;99.37;100336.66;6211130;23;20023;-64
2022/05/09 07:38:49;;;;;;;2.13;0.80;;;;;;;14.73;96.43;100346.69;6147054;23;20071;-63
2022/05/09 07:41:34;;;;;;;2.03;0.77;;;;;;;15.11;94.61;100333.97;6198597;23;20027;-64
2022/05/09 07:44:18;;;;;;;2.88;1.00;;;;;;;15.10;92.69;100342.03;6211359;23;20409;-63
2022/05/09 07:47:02;;;;;;;1.25;0.80;;;;;;;14.60;97.24;100321.25;6219245;23;20104;-68
2022/05/09 07:49:47;;;;;;;4.13;1.00;;;;;;;14.45;99.27;100329.66;6177033;23;20038;-63
2022/05/09 07:52:31;;;;;;;3.05;1.02;;;;;;;14.29;100.00;100350.53;6218531;23;20406;-63
2022/05/09 07:55:16;;;;;;;3.22;1.35;;;;;;;14.32;99.71;100342.44;6211071;23;20481;-63
2022/05/09 07:58:00;;;;;;;3.63;0.82;;;;;;;15.10;94.38;100344.72;6210196;23;20227;-64
2022/05/09 08:00:45;;;;;;;3.15;1.20;;;;;;;16.96;81.92;100351.94;6221234;23;20159;-64
2022/05/09 08:03:33;;;;;;;2.92;0.80;;;;;;;18.85;65.25;100348.69;6211060;23;20023;-64
2022/05/09 08:06:18;;;;;;;5.57;1.00;;;;;;;18.31;66.34;100345.69;6186102;23;20154;-71
2022/05/09 08:09:04;;;;;;;3.65;0.80;;;;;;;15.60;77.50;100317.38;6220868;23;20027;-64
2022/05/09 08:11:48;;;;;;;2.33;0.90;;;;;;;16.31;79.56;100340.84;6186002;23;20522;-70
2022/05/09 08:14:33;;;;;;;3.17;0.98;;;;;;;16.70;75.77;100331.44;6198377;23;20047;-65
2022/05/09 08:17:18;;;;;;;3.80;0.70;;;;;;;17.79;70.49;100339.78;6198297;23;20059;-65
2022/05/09 08:20:03;;;;;;;1.75;0.80;;;;;;;18.60;59.67;100327.41;6197928;23;20082;-64
2022/05/09 08:22:49;;;;;;;4.22;0.73;;;;;;;17.00;64.12;100334.81;6188152;23;20028;-63
2022/05/09 08:25:41;;;;;;;2.25;0.88;;;;;;;17.74;66.34;100343.56;6186194;23;20035;-72
2022/05/09 08:28:26;;;;;;;1.70;0.80;;;;;;;18.78;58.16;100306.94;6220618;23;20031;-67
2022/05/09 08:31:11;;;;;;;2.22;0.85;;;;;;;19.28;50.79;100327.91;6220597;23;20126;-66
2022/05/09 08:33:57;;;;;;;2.88;0.95;;;;;;;20.14;49.62;100331.81;6188712;23;20083;-64
2022/05/09 08:36:53;;;;;;;4.07;0.93;;;;;;;21.10;43.65;100345.63;6211073;23;20032;-65
2022/05/09 08:39:38;;;;;;;1.42;0.80;;;;;;;23.01;38.12;100339.88;6208454;23;20024;-64
2022/05/09 08:42:25;;;;;;;;;;;;;;;22.56;45.55;100327.31;6188237;23;20030;-62
2022/05/09 08:45:17;;;;;;;2.63;0.90;;;;;;;19.35;49.26;100341.94;6197818;23;20362;-68
2022/05/09 08:48:37;;;;;;;7.00;0.98;;;;;;;17.42;62.17;100335.91;6218018;23;20166;-65
2022/05/09 08:51:45;;;;;;;2.50;0.73;;;;;;;16.60;59.13;100343.41;6037505;23;20026;-64
2022/05/09 08:54:31;;;;;;;1.30;0.80;;;;;;;16.19;55.16;100329.69;6057915;23;20037;-63
2022/05/09 08:57:34;;;;;;;2.15;0.80;;;;;;;18.45;42.45;100386.28;6060592;23;20497;-63
2022/05/09 09:00:20;;;;;;;3.22;0.90;;;;;;;17.83;44.72;100387.00;6049784;23;20101;-65
2022/05/09 09:03:23;;;;;;;1.80;0.95;;;;;;;17.81;45.64;100377.28;6047515;23;20126;-65
2022/05/09 09:06:32;;;;;;;2.20;1.15;;;;;;;18.54;44.86;100386.75;6048416;23;20525;-71
2022/05/09 09:09:55;;;;;;;4.35;0.95;;;;;;;19.22;46.62;100392.69;6050872;23;20032;-64
2022/05/09 09:12:43;;;;;;;2.40;1.02;;;;;;;18.55;50.43;100385.81;6068833;23;20033;-64
2022/05/09 09:15:37;;;;;;;3.92;1.30;;;;;;;18.36;56.26;100398.28;6049582;23;20034;-66
2022/05/09 09:18:44;;;;;;;5.57;1.10;;;;;;;17.65;63.95;100408.31;6040177;23;20030;-63
2022/05/09 09:21:46;;;;;;;7.60;0.90;;;;;;;17.10;70.85;100421.97;6040043;23;20034;-64
2022/05/09 09:25:12;;;;;;;2.75;0.82;;;;;;;15.85;83.50;100425.31;6018071;23;20543;-63
2022/05/09 09:28:01;;;;;;;;;;;;;;;15.23;92.59;100419.13;6080087;23;20074;-63
2022/05/09 09:30:46;;;;;;;2.63;0.93;;;;;;;14.20;100.00;100425.41;6185456;23;20321;-71
2022/05/09 09:33:44;;;;;;;3.63;1.10;;;;;;;15.20;100.00;100435.25;6210262;23;20027;-65
2022/05/09 09:36:37;;;;;;;2.25;0.90;;;;;;;16.37;94.83;100455.72;6220316;23;20409;-63
2022/05/09 09:39:22;;;;;;;2.05;1.00;;;;;;;15.49;96.38;100429.97;6217504;23;20030;-66
2022/05/09 09:42:07;;;;;;;3.22;1.17;;;;;;;15.23;100.00;100443.16;6219906;23;20032;-64
2022/05/09 09:44:53;;;;;;;;;;;;;;;14.98;100.00;100465.25;6219408;23;20046;-64
2022/05/09 09:47:37;;;;;;;1.98;0.93;;;;;;;14.06;100.00;100467.53;6219700;23;19918;-64
2022/05/09 09:50:25;;;;;;;1.73;1.25;;;;;;;13.70;100.00;100481.69;6210256;23;20524;-65
2022/05/09 09:53:11;;;;;;;3.55;1.38;;;;;;;13.15;100.00;100475.72;6219242;23;20078;-67
2022/05/09 09:56:25;;;;;;;1.63;1.00;;;;;;;12.75;100.00;100498.59;6222618;23;20031;-63
2022/05/09 09:59:09;;;;;;;1.45;0.98;;;;;;;11.97;100.00;100497.19;6223582;23;20027;-64
2022/05/09 10:02:05;;;;;;;3.70;1.10;;;;;;;12.12;100.00;100481.91;6197055;23;20517;-63
2022/05/09 10:04:50;;;;;;;2.22;1.17;;;;;;;11.97;100.00;100484.78;6209705;23;20046;-65
2022/05/09 10:07:35;;;;;;;3.22;1.50;;;;;;;12.09;100.00;100483.72;6219503;23;20035;-65
2022/05/09 10:10:23;;;;;;;3.35;1.13;;;;;;;12.34;100.00;100458.53;6184766;23;20032;-68
2022/05/09 10:13:21;;;;;;;2.42;1.80;;;;;;;12.99;100.00;100474.25;6187039;23;20031;-64
2022/05/09 10:16:21;;;;;;;3.50;2.30;;;;;;;13.22;100.00;100472.03;6186816;23;20098;-64
2022/05/09 10:19:13;;;;;;;3.10;1.85;;;;;;;13.39;100.00;100475.22;6164795;23;20680;-65
2022/05/09 10:25:16;;;;;;;2.08;1.30;;;;;;;13.83;100.00;100476.06;6186684;23;20086;-64
2022/05/09 10:28:13;;;;;;;2.25;1.05;;;;;;;14.33;100.00;100471.38;6165385;23;20074;-65
2022/05/09 10:31:16;;;;;;;3.05;0.90;;;;;;;15.47;96.87;100476.38;6219631;23;20544;-65
2022/05/09 10:34:10;;;;;;;2.15;1.20;;;;;;;17.95;82.31;100477.75;6198526;23;20028;-65
2022/05/09 10:37:12;;;;;;;3.30;1.17;;;;;;;19.61;68.65;100486.88;6209546;23;20074;-65
2022/05/09 10:40:04;;;;;;;2.15;1.17;;;;;;;20.49;61.00;100477.25;6196841;23;20031;-65
2022/05/09 10:43:05;;;;;;;3.03;1.00;;;;;;;21.28;58.00;100477.69;6209440;23;20071;-65
2022/05/09 10:45:51;;;;;;;2.97;0.73;;;;;;;19.87;52.88;100465.03;6195764;23;20028;-67
2022/05/09 10:48:57;;;;;;;2.90;0.80;;;;;;;19.60;58.54;100464.50;6219586;23;20363;-67
2022/05/09 10:51:59;;;;;;;2.83;0.80;;;;;;;19.63;59.59;100480.50;6219933;23;20031;-67
2022/05/09 10:55:03;;;;;;;1.85;0.95;;;;;;;19.57;58.55;100475.38;6147124;23;20516;-67
2022/05/09 10:58:06;;;;;;;4.22;1.13;;;;;;;19.26;59.40;100475.00;6211656;23;20513;-67
2022/05/09 11:01:08;;;;;;;3.35;1.10;;;;;;;18.94;60.36;100462.03;6198565;23;20082;-67
2022/05/09 11:03:54;;;;;;;2.40;1.10;;;;;;;18.21;60.45;100481.22;6175779;23;20362;-67
2022/05/09 11:07:18;;;;;;;1.35;0.90;;;;;;;18.62;61.31;100480.47;6221693;23;20082;-67
2022/05/09 11:10:21;;;;;;;1.50;1.08;;;;;;;18.36;62.44;100478.84;6146935;23;20036;-67
2022/05/09 11:13:14;;;;;;;1.38;1.00;;;;;;;18.52;64.83;100479.97;6177914;23;20032;-67
2022/05/09 11:16:14;;;;;;;2.30;0.90;;;;;;;18.72;63.63;100477.34;6189498;23;20093;-67
2022/05/09 11:19:05;;;;;;;3.45;1.00;;;;;;;18.62;64.17;100472.44;6145683;23;20493;-69
2022/05/09 11:22:06;;;;;;;1.92;1.02;;;;;;;18.42;65.25;100480.38;6167947;23;20430;-67
2022/05/09 11:25:13;;;;;;;1.85;0.90;;;;;;;17.64;66.45;100460.19;6221349;23;20529;-67
2022/05/09 11:28:13;;;;;;;2.08;0.90;;;;;;;17.47;68.74;100457.28;6198994;23;20477;-67
2022/05/09 11:31:07;;;;;;;1.58;0.90;;;;;;;16.84;70.41;100473.81;6167880;23;20028;-67
2022/05/09 11:34:20;;;;;;;2.17;0.80;;;;;;;16.76;71.38;100473.19;6196660;23;20054;-71
2022/05/09 11:37:29;;;;;;;2.85;1.00;;;;;;;16.83;71.61;100437.25;6219130;23;20024;-66
2022/05/09 11:40:29;;;;;;;1.33;0.77;;;;;;;16.67;67.14;100451.19;6186317;23;20524;-66
2022/05/09 11:43:37;;;;;;;1.42;0.80;;;;;;;16.16;71.81;100448.41;6188590;23;20035;-66
2022/05/09 11:46:43;;;;;;;1.92;0.88;;;;;;;16.04;75.80;100446.09;6147077;23;20406;-66
2022/05/09 11:49:46;;;;;;;3.15;1.00;;;;;;;16.21;78.72;100464.28;6167672;23;20036;-67
2022/05/09 11:52:49;;;;;;;3.13;1.35;;;;;;;16.68;77.45;100469.00;6167906;23;20358;-66
2022/05/09 11:55:37;;;;;;;1.80;1.10;;;;;;;16.35;76.46;100448.69;6167588;23;20031;-66
2022/05/09 11:58:25;;;;;;;1.13;0.75;;;;;;;15.94;75.42;100455.31;6218636;23;20027;-66
2022/05/09 12:01:11;;;;;;;1.48;0.90;;;;;;;15.88;77.70;100452.84;6198676;23;20027;-68
2022/05/09 12:03:55;;;;;;;2.00;0.90;;;;;;;16.05;77.34;100442.50;6220675;23;20477;-67
2022/05/09 12:06:42;;;;;;;1.67;1.08;;;;;;;15.96;78.25;100423.19;6188473;23;20031;-66
2022/05/09 12:10:32;;;;;;;3.17;0.90;;;;;;;16.02;78.62;100465.81;6221417;23;20036;-66
2022/05/09 12:13:21;;;;;;;1.75;0.70;;;;;;;15.62;77.56;100459.91;6048527;23;20110;-73
2022/05/09 12:16:08;;;;;;;3.63;0.82;;;;;;;15.25;78.75;100438.66;6030950;23;20403;-67
2022/05/09 12:19:00;;;;;;;2.70;0.73;;;;;;;15.10;80.54;100444.44;6039790;23;20101;-66
2022/05/09 12:22:18;;;;;;;1.48;0.80;;;;;;;14.99;79.24;100433.16;6040254;23;20429;-75
2022/05/09 12:25:06;;;;;;;3.08;0.93;;;;;;;14.73;82.31;100458.81;6018653;23;20361;-73
2022/05/09 12:28:04;;;;;;;2.25;1.10;;;;;;;15.01;80.98;100459.81;6030416;23;20033;-67
2022/05/09 12:30:52;;;;;;;1.23;1.00;;;;;;;15.17;78.57;100463.84;6030764;23;20117;-66
2022/05/09 12:33:46;;;;;;;3.08;1.17;;;;;;;15.11;72.86;100472.03;5998828;23;20026;-68
2022/05/09 12:36:34;;;;;;;4.35;1.00;;;;;;;15.16;74.77;100467.44;6050067;23;20082;-67
2022/05/09 12:39:36;;;;;;;4.80;1.20;;;;;;;15.56;77.50;100454.72;6050105;23;20098;-66
2022/05/09 12:42:46;;;;;;;2.65;1.50;;;;;;;15.43;77.77;100470.22;6074861;23;20042;-66
2022/05/09 12:45:32;;;;;;;2.35;0.90;;;;;;;15.10;74.91;100454.22;6218317;23;20090;-67
2022/05/09 12:48:16;;;;;;;2.28;0.90;;;;;;;15.08;72.96;100454.31;6188015;23;20027;-66
2022/05/09 12:51:04;;;;;;;4.70;1.13;;;;;;;14.76;74.41;100467.63;6188088;23;20239;-68
2022/05/09 12:53:51;;;;;;;2.38;1.13;;;;;;;14.57;76.68;100476.13;6197533;23;20095;-71
2022/05/09 12:56:37;;;;;;;2.83;1.00;;;;;;;14.16;80.43;100446.88;6166937;23;20111;-66
2022/05/09 12:59:22;;;;;;;2.47;1.00;;;;;;;14.65;81.23;100475.03;6218072;23;20031;-66
2022/05/09 13:02:06;;;;;;;;;;;;;;;14.98;81.50;100490.16;6198315;23;20108;-67
2022/05/09 13:04:52;;;;;;;7.25;1.30;;;;;;;14.43;90.41;100483.59;6187121;23;20235;-66
2022/05/09 13:08:16;;;;;;;7.80;1.58;;;;;;;14.49;98.32;100492.34;6220563;23;20037;-67
2022/05/09 13:11:00;;;;;;;3.13;0.90;;;;;;;14.22;100.00;100494.75;6038753;23;20118;-72
2022/05/09 13:13:58;;;;;;;6.03;1.02;;;;;;;14.04;100.00;100508.50;6050333;23;20504;-66